Time;durP1;ratioP1;P1;durP2;ratioP2;P2;SDS_P1;SDS_P2;PMS_P1;PMS_P2;Temp;Humidity;BMP_temperature;BMP_pressure;BME280_temperature;BME280_humidity;BME280_pressure;Samples;Min_cycle;Max_cycle;Signal;HPM_P1;HPM_P2
2021/10/02 00:01:50;;;;;;;8.93;2.30;;;13.40;99.90;;;;;;5008269;28;20217;-88
2021/10/02 00:31:52;;;;;;;3.63;1.50;;;13.10;99.90;;;;;;4994744;28;20246;-89
2021/10/02 00:34:44;;;;;;;2.27;1.10;;;13.00;99.90;;;;;;4994716;28;20200;-89
2021/10/02 00:37:29;;;;;;;1.93;0.83;;;13.00;99.90;;;;;;5000291;28;20191;-89
2021/10/02 00:45:21;;;;;;;1.87;1.40;;;12.80;99.90;;;;;;4995756;28;20269;-90
2021/10/02 00:47:49;;;;;;;5.13;1.60;;;12.70;99.90;;;;;;4995605;28;20204;-87
2021/10/02 00:50:19;;;;;;;3.87;1.60;;;12.70;99.90;;;;;;4995183;28;20228;-88
2021/10/02 00:52:46;;;;;;;4.60;1.97;;;12.70;99.90;;;;;;4993135;28;20211;-88
2021/10/02 00:55:13;;;;;;;2.37;1.53;;;12.60;99.90;;;;;;4995617;28;20200;-87
2021/10/02 00:57:40;;;;;;;9.07;2.43;;;12.60;99.90;;;;;;4996736;28;20204;-89
2021/10/02 01:00:10;;;;;;;4.33;1.87;;;12.50;99.90;;;;;;4995152;28;20235;-88
2021/10/02 01:02:49;;;;;;;4.23;1.87;;;12.50;99.90;;;;;;5007003;28;20218;-89
2021/10/02 01:05:43;;;;;;;4.37;1.70;;;12.40;99.90;;;;;;4998254;28;20612;-91
2021/10/02 01:08:24;;;;;;;4.13;1.53;;;12.30;99.90;;;;;;4991008;28;20214;-90
2021/10/02 01:10:57;;;;;;;2.73;1.50;;;12.30;99.90;;;;;;5006982;28;20254;-90
2021/10/02 01:13:31;;;;;;;3.40;1.60;;;12.20;99.90;;;;;;5008614;28;20259;-89
2021/10/02 01:16:03;;;;;;;3.20;1.40;;;12.20;99.90;;;;;;5006271;28;20222;-88
2021/10/02 01:18:36;;;;;;;5.13;2.23;;;12.20;99.90;;;;;;5016305;28;20191;-88
2021/10/02 01:21:23;;;;;;;5.13;2.00;;;12.10;99.90;;;;;;5015608;28;20242;-87
2021/10/02 01:24:00;;;;;;;4.73;1.70;;;12.10;99.90;;;;;;4996215;28;20192;-88
2021/10/02 01:26:42;;;;;;;3.47;1.60;;;12.10;99.90;;;;;;4993863;28;20188;-88
2021/10/02 01:29:13;;;;;;;4.80;1.70;;;12.10;99.90;;;;;;4995311;28;20204;-90
2021/10/02 01:31:48;;;;;;;7.03;2.40;;;12.10;99.90;;;;;;5013657;28;20235;-88
2021/10/02 01:34:22;;;;;;;5.47;2.07;;;12.10;99.90;;;;;;5012891;28;20585;-91
2021/10/02 01:37:01;;;;;;;3.97;2.07;;;12.10;99.90;;;;;;5013316;28;21913;-89
2021/10/02 01:47:55;;;;;;;4.53;2.20;;;12.10;99.90;;;;;;4994283;28;20219;-85
2021/10/02 01:50:23;;;;;;;4.30;1.80;;;12.10;99.90;;;;;;4996979;28;20251;-86
2021/10/02 01:52:51;;;;;;;3.63;2.00;;;12.20;99.90;;;;;;4996365;28;20199;-87
2021/10/02 01:55:19;;;;;;;4.03;2.20;;;12.20;99.90;;;;;;4997435;28;20227;-88
2021/10/02 01:57:48;;;;;;;5.63;2.80;;;12.20;99.90;;;;;;4996001;28;20626;-85
2021/10/02 02:00:17;;;;;;;3.17;2.00;;;12.20;99.90;;;;;;4994251;28;20235;-88
2021/10/02 02:02:48;;;;;;;5.77;2.37;;;12.20;99.90;;;;;;4994086;28;20635;-89
2021/10/02 02:05:17;;;;;;;7.23;2.60;;;12.20;99.90;;;;;;4994217;28;20200;-90
2021/10/02 02:07:49;;;;;;;5.30;2.53;;;12.20;99.90;;;;;;4994854;28;20867;-89
2021/10/02 02:10:18;;;;;;;6.83;2.40;;;12.20;99.90;;;;;;4993772;28;20206;-90
2021/10/02 02:12:46;;;;;;;6.13;2.63;;;12.20;99.90;;;;;;4994216;28;20195;-89
2021/10/02 02:15:16;;;;;;;6.70;2.43;;;12.20;99.90;;;;;;5012539;28;20223;-89
2021/10/02 02:17:46;;;;;;;7.67;2.03;;;12.20;99.90;;;;;;5011191;28;20218;-88
2021/10/02 02:20:17;;;;;;;4.67;1.90;;;12.10;99.90;;;;;;5009011;28;20223;-88
2021/10/02 02:22:44;;;;;;;3.53;1.73;;;12.10;99.90;;;;;;5009357;28;20250;-88
2021/10/02 02:25:11;;;;;;;4.17;1.63;;;12.10;99.90;;;;;;4992959;28;20219;-88
2021/10/02 02:27:38;;;;;;;3.80;1.67;;;12.00;99.90;;;;;;4992736;28;20239;-88
2021/10/02 02:30:05;;;;;;;2.77;1.93;;;12.00;99.90;;;;;;5010494;28;20207;-87
2021/10/02 02:32:35;;;;;;;5.47;1.97;;;11.90;99.90;;;;;;5004948;28;20508;-88
2021/10/02 02:35:02;;;;;;;5.30;1.93;;;11.90;99.90;;;;;;4993670;28;20211;-90
2021/10/02 02:37:29;;;;;;;3.60;1.67;;;11.80;99.90;;;;;;4992136;28;20220;-89
2021/10/02 02:39:56;;;;;;;3.63;2.13;;;11.80;99.90;;;;;;4992757;28;20235;-88
2021/10/02 02:42:23;;;;;;;4.17;1.80;;;11.80;99.90;;;;;;4993062;28;20215;-91
2021/10/02 02:44:50;;;;;;;3.90;2.13;;;11.80;99.90;;;;;;4992105;28;20501;-90
2021/10/02 02:47:21;;;;;;;4.20;1.60;;;11.70;99.90;;;;;;4991977;28;20215;-88
2021/10/02 02:49:59;;;;;;;3.73;1.80;;;11.70;99.90;;;;;;4992531;28;20282;-88
2021/10/02 02:52:38;;;;;;;3.00;1.77;;;11.70;99.90;;;;;;4992059;28;20561;-88
2021/10/02 02:55:08;;;;;;;3.60;1.50;;;11.70;99.90;;;;;;4992515;28;20192;-89
2021/10/02 02:57:41;;;;;;;6.90;2.10;;;11.70;99.90;;;;;;4991869;28;20195;-89
2021/10/02 03:00:13;;;;;;;3.83;1.50;;;11.70;99.90;;;;;;4992063;28;20226;-88
2021/10/02 03:02:48;;;;;;;2.50;1.43;;;11.70;99.90;;;;;;4992148;28;20218;-87
2021/10/02 03:05:17;;;;;;;2.43;1.50;;;11.60;99.90;;;;;;4991996;28;20509;-88
2021/10/02 03:07:54;;;;;;;2.03;1.30;;;11.60;99.90;;;;;;4992284;28;20214;-89
2021/10/02 03:10:21;;;;;;;4.53;1.40;;;11.50;99.90;;;;;;4991855;28;20290;-89
2021/10/02 03:12:50;;;;;;;4.33;1.60;;;11.50;99.90;;;;;;4991678;28;20208;-88
2021/10/02 03:15:18;;;;;;;5.67;2.00;;;11.50;99.90;;;;;;4992132;28;20211;-89
2021/10/02 03:17:47;;;;;;;4.90;1.97;;;11.50;99.90;;;;;;4991756;28;20200;-88
2021/10/02 03:20:17;;;;;;;3.30;2.17;;;11.50;99.90;;;;;;4998199;28;20238;-89
2021/10/02 03:22:47;;;;;;;5.23;2.10;;;11.50;99.90;;;;;;5010491;28;20203;-88
2021/10/02 03:25:14;;;;;;;3.60;1.93;;;11.50;99.90;;;;;;5011313;28;20219;-88
2021/10/02 03:27:42;;;;;;;2.70;1.90;;;11.50;99.90;;;;;;4992474;28;20223;-87
2021/10/02 03:30:11;;;;;;;6.17;2.10;;;11.50;99.90;;;;;;4998195;28;20211;-86
2021/10/02 03:32:38;;;;;;;3.27;1.73;;;11.40;99.90;;;;;;5011132;28;20210;-88
2021/10/02 03:35:06;;;;;;;1.87;1.63;;;11.40;99.90;;;;;;5011400;28;20893;-89
2021/10/02 03:37:34;;;;;;;3.00;1.77;;;11.30;99.90;;;;;;4994249;28;20208;-88
2021/10/02 03:40:01;;;;;;;2.20;1.53;;;11.30;99.90;;;;;;4991689;28;20200;-89
2021/10/02 03:42:28;;;;;;;2.97;1.83;;;11.20;99.90;;;;;;5005960;28;20199;-89
2021/10/02 03:44:55;;;;;;;3.40;2.10;;;11.20;99.90;;;;;;5009378;28;20218;-89
2021/10/02 03:47:23;;;;;;;2.63;2.10;;;11.20;99.90;;;;;;5007988;28;20207;-92
2021/10/02 03:49:50;;;;;;;5.37;2.63;;;11.20;99.90;;;;;;5013441;28;20223;-90
2021/10/02 03:52:17;;;;;;;2.80;2.23;;;11.20;99.90;;;;;;5013829;28;20203;-92
2021/10/02 03:54:46;;;;;;;4.43;2.70;;;11.20;99.90;;;;;;5012655;28;20484;-89
2021/10/02 03:57:13;;;;;;;3.40;2.87;;;11.20;99.90;;;;;;5012578;28;20203;-90
2021/10/02 03:59:42;;;;;;;3.80;3.10;;;11.20;99.90;;;;;;5012120;28;20235;-90
2021/10/02 04:02:09;;;;;;;4.87;3.37;;;11.20;99.90;;;;;;4984607;28;20332;-91
2021/10/02 04:04:36;;;;;;;5.60;3.20;;;11.20;99.90;;;;;;4995001;28;20485;-87
2021/10/02 04:07:03;;;;;;;5.20;3.47;;;11.20;99.90;;;;;;4992834;28;20211;-88
2021/10/02 04:09:30;;;;;;;5.50;4.00;;;11.20;99.90;;;;;;5010514;28;20204;-88
2021/10/02 04:11:58;;;;;;;10.90;4.73;;;11.30;99.90;;;;;;5011350;28;20245;-88
2021/10/02 04:14:25;;;;;;;6.63;4.40;;;11.30;99.90;;;;;;5009882;28;20207;-89
2021/10/02 04:16:53;;;;;;;8.73;5.07;;;11.30;99.90;;;;;;5007032;28;20203;-88
2021/10/02 04:19:21;;;;;;;9.33;4.80;;;11.40;99.90;;;;;;4991182;28;20204;-88
2021/10/02 04:21:47;;;;;;;9.10;5.53;;;11.40;99.90;;;;;;4987991;28;20226;-88
2021/10/02 04:24:14;;;;;;;6.33;5.17;;;11.40;99.90;;;;;;4989891;28;20850;-89
2021/10/02 04:26:41;;;;;;;11.07;6.30;;;11.50;99.90;;;;;;4991182;28;20216;-87
2021/10/02 04:29:10;;;;;;;10.60;6.43;;;11.50;99.90;;;;;;4990131;28;20204;-89
2021/10/02 04:31:37;;;;;;;11.73;8.27;;;11.50;99.90;;;;;;4989382;28;20204;-89
2021/10/02 04:34:05;;;;;;;10.70;7.10;;;11.60;99.90;;;;;;4988127;28;20286;-90
2021/10/02 04:36:32;;;;;;;7.60;6.40;;;11.60;99.90;;;;;;4992398;28;20211;-88
2021/10/02 04:38:59;;;;;;;8.43;6.27;;;11.60;99.90;;;;;;5010116;28;20211;-89
2021/10/02 04:41:27;;;;;;;8.97;6.40;;;11.50;99.90;;;;;;5010108;28;20579;-88
2021/10/02 04:43:57;;;;;;;8.40;6.63;;;11.50;99.90;;;;;;4996694;28;20262;-89
2021/10/02 04:46:25;;;;;;;12.03;7.90;;;11.50;99.90;;;;;;4993941;28;20308;-89
2021/10/02 04:48:52;;;;;;;13.30;7.53;;;11.50;99.90;;;;;;4995067;28;20203;-90
2021/10/02 04:51:19;;;;;;;9.43;6.97;;;11.50;99.90;;;;;;5003511;28;20212;-89
2021/10/02 04:53:46;;;;;;;10.20;7.27;;;11.50;99.90;;;;;;5013594;28;20207;-90
2021/10/02 04:56:14;;;;;;;10.00;7.43;;;11.50;99.90;;;;;;4999871;28;20207;-88
2021/10/02 04:58:43;;;;;;;12.13;7.27;;;11.50;99.90;;;;;;4994283;28;20212;-89
2021/10/02 05:01:10;;;;;;;10.53;7.67;;;11.50;99.90;;;;;;5006997;28;20230;-89
2021/10/02 05:03:40;;;;;;;13.27;9.73;;;11.50;99.90;;;;;;5013978;28;20191;-90
2021/10/02 05:06:08;;;;;;;14.97;9.37;;;11.50;99.90;;;;;;5014025;28;20208;-89
2021/10/02 05:08:38;;;;;;;14.93;8.90;;;11.40;99.90;;;;;;5013806;28;20196;-90
2021/10/02 05:11:06;;;;;;;13.47;9.07;;;11.40;99.90;;;;;;5013258;28;20248;-91
2021/10/02 05:13:34;;;;;;;10.20;9.07;;;11.40;99.90;;;;;;5009161;28;20210;-89
2021/10/02 05:16:01;;;;;;;9.73;7.13;;;11.40;99.90;;;;;;5014600;28;20630;-90
2021/10/02 05:18:28;;;;;;;12.20;7.73;;;11.40;99.90;;;;;;5010174;28;20216;-88
2021/10/02 05:20:56;;;;;;;10.90;8.10;;;11.30;99.90;;;;;;4995789;28;20227;-91
2021/10/02 05:23:23;;;;;;;13.57;8.27;;;11.30;99.90;;;;;;4995461;28;20208;-90
2021/10/02 05:25:52;;;;;;;17.97;11.57;;;11.30;99.90;;;;;;4995711;28;20200;-91
2021/10/02 05:28:19;;;;;;;13.50;9.97;;;11.30;99.90;;;;;;5003439;28;20220;-90
2021/10/02 05:30:46;;;;;;;20.50;11.60;;;11.30;99.90;;;;;;5006270;28;20204;-89
2021/10/02 05:33:13;;;;;;;17.37;12.00;;;11.30;99.90;;;;;;5003921;28;20216;-89
2021/10/02 05:35:40;;;;;;;17.07;12.13;;;11.20;99.90;;;;;;4998847;28;20204;-89
2021/10/02 05:38:08;;;;;;;21.60;13.60;;;11.20;99.90;;;;;;5000647;28;20204;-86
2021/10/02 05:40:35;;;;;;;16.73;13.03;;;11.20;99.90;;;;;;4993893;28;20287;-88
2021/10/02 05:43:02;;;;;;;21.17;14.23;;;11.20;99.90;;;;;;4993928;28;20267;-89
2021/10/02 05:45:30;;;;;;;20.90;15.47;;;11.20;99.90;;;;;;4993069;28;20204;-87
2021/10/02 05:47:57;;;;;;;22.03;16.00;;;11.20;99.90;;;;;;4992494;28;20900;-88
2021/10/02 05:50:24;;;;;;;21.73;15.20;;;11.20;99.90;;;;;;4993991;28;20986;-88
2021/10/02 05:52:50;;;;;;;23.27;16.30;;;11.20;99.90;;;;;;4997568;28;20207;-87
2021/10/02 05:55:19;;;;;;;28.17;17.30;;;11.20;99.90;;;;;;5012878;28;20195;-87
2021/10/02 05:57:46;;;;;;;24.13;17.83;;;11.30;99.90;;;;;;4997914;28;20208;-88
2021/10/02 06:00:13;;;;;;;25.30;18.17;;;11.30;99.90;;;;;;4992882;28;20563;-89
2021/10/02 06:02:41;;;;;;;24.70;16.93;;;11.30;99.90;;;;;;4992216;28;20632;-88
2021/10/02 06:05:08;;;;;;;24.27;16.13;;;11.40;99.90;;;;;;4992872;28;20513;-89
2021/10/02 06:07:35;;;;;;;24.20;16.90;;;11.40;99.90;;;;;;4992722;28;20489;-89
2021/10/02 06:10:02;;;;;;;25.47;16.97;;;11.40;99.90;;;;;;4993340;28;20312;-90
2021/10/02 06:12:33;;;;;;;29.00;17.77;;;11.40;99.90;;;;;;4991075;28;20232;-89
2021/10/02 06:15:00;;;;;;;28.17;17.87;;;11.40;99.90;;;;;;4993789;28;20207;-89
2021/10/02 06:17:27;;;;;;;23.70;16.53;;;11.50;99.90;;;;;;4993145;28;20302;-88
2021/10/02 06:19:54;;;;;;;29.37;18.47;;;11.50;99.90;;;;;;4993062;28;20262;-89
2021/10/02 06:22:21;;;;;;;30.60;18.10;;;11.60;99.90;;;;;;4993101;28;20243;-88
2021/10/02 06:24:48;;;;;;;25.90;16.57;;;11.60;99.90;;;;;;5009333;28;20207;-89
2021/10/02 06:27:15;;;;;;;22.07;16.57;;;11.60;99.90;;;;;;5013070;28;20196;-89
2021/10/02 06:29:44;;;;;;;27.87;16.60;;;11.70;99.90;;;;;;5013348;28;20972;-89
2021/10/02 06:32:10;;;;;;;24.77;16.13;;;11.70;99.90;;;;;;5013797;28;20220;-89
2021/10/02 06:34:37;;;;;;;31.50;17.03;;;11.70;99.90;;;;;;5013460;28;20222;-89
2021/10/02 06:37:04;;;;;;;24.40;15.87;;;11.70;99.90;;;;;;5012964;28;20199;-89
2021/10/02 06:39:31;;;;;;;26.27;17.77;;;11.70;99.90;;;;;;5011986;28;20207;-88
2021/10/02 06:41:58;;;;;;;27.57;16.97;;;11.70;99.90;;;;;;5008253;28;20227;-87
2021/10/02 06:44:25;;;;;;;27.30;17.10;;;11.80;99.90;;;;;;4992600;28;20203;-89
2021/10/02 06:46:53;;;;;;;25.33;17.10;;;11.80;99.90;;;;;;4995109;28;20204;-89
2021/10/02 06:49:23;;;;;;;23.13;16.23;;;11.80;99.90;;;;;;5012064;28;20302;-89
2021/10/02 06:51:50;;;;;;;23.13;16.63;;;11.80;99.90;;;;;;5013678;28;20562;-88
2021/10/02 06:54:17;;;;;;;20.40;14.73;;;11.90;99.90;;;;;;5011241;28;20215;-89
2021/10/02 06:56:44;;;;;;;24.50;16.77;;;11.90;99.90;;;;;;4998455;28;20188;-89
2021/10/02 06:59:10;;;;;;;29.80;18.63;;;12.00;99.90;;;;;;4997387;28;20208;-91
2021/10/02 07:01:37;;;;;;;25.63;17.20;;;12.00;99.90;;;;;;4995325;28;20227;-89
2021/10/02 07:04:06;;;;;;;25.10;16.20;;;12.10;99.90;;;;;;4996387;28;20208;-89
2021/10/02 07:06:32;;;;;;;29.00;17.90;;;12.10;99.90;;;;;;4993865;28;20609;-88
2021/10/02 07:08:59;;;;;;;27.07;17.23;;;12.10;99.90;;;;;;4992369;28;20211;-89
2021/10/02 07:11:26;;;;;;;22.27;16.33;;;12.10;99.90;;;;;;4990053;28;20640;-90
2021/10/02 07:13:53;;;;;;;30.90;16.60;;;12.20;99.90;;;;;;4991663;28;20203;-91
2021/10/02 07:16:21;;;;;;;32.40;18.33;;;12.20;99.90;;;;;;4992245;28;20350;-88
2021/10/02 07:18:48;;;;;;;29.17;17.50;;;12.20;99.90;;;;;;4991863;28;20624;-93
2021/10/02 07:21:16;;;;;;;27.30;18.70;;;12.20;99.90;;;;;;4991486;28;20224;-94
2021/10/02 07:23:43;;;;;;;28.87;18.03;;;12.30;99.90;;;;;;4992190;28;20203;-93
2021/10/02 07:26:10;;;;;;;32.70;20.33;;;12.30;99.90;;;;;;4992344;28;20265;-91
2021/10/02 07:28:37;;;;;;;25.87;17.60;;;12.40;99.90;;;;;;4993376;28;20519;-91
2021/10/02 07:31:04;;;;;;;28.13;17.97;;;12.40;99.90;;;;;;4993457;28;20203;-92
2021/10/02 07:33:31;;;;;;;31.03;19.73;;;12.40;99.90;;;;;;4992618;28;20298;-91
2021/10/02 07:35:58;;;;;;;31.37;18.63;;;12.50;99.90;;;;;;4995850;28;20215;-90
2021/10/02 07:38:29;;;;;;;31.83;18.57;;;12.50;99.90;;;;;;5011111;28;20249;-91
2021/10/02 07:40:58;;;;;;;34.47;19.87;;;12.60;99.90;;;;;;5013233;28;20290;-91
2021/10/02 07:43:28;;;;;;;27.13;17.47;;;12.60;99.90;;;;;;5012896;28;20230;-89
2021/10/02 07:45:55;;;;;;;30.23;18.73;;;12.60;99.90;;;;;;5012089;28;20195;-91
2021/10/02 07:48:24;;;;;;;28.13;17.13;;;12.70;99.90;;;;;;4993351;28;20551;-93
2021/10/02 07:55:13;;;;;;;32.20;18.20;;;12.70;99.90;;;;;;4911693;29;20196;-93
2021/10/02 07:57:44;;;;;;;29.00;17.40;;;12.70;99.90;;;;;;4974260;28;20266;-91
2021/10/02 08:00:16;;;;;;;30.83;18.07;;;12.80;99.90;;;;;;5011460;28;20575;-93
2021/10/02 08:02:44;;;;;;;29.63;16.33;;;12.80;99.90;;;;;;4997969;28;20238;-91
2021/10/02 08:05:12;;;;;;;25.07;15.53;;;12.90;99.90;;;;;;4991397;28;20747;-89
2021/10/02 08:07:41;;;;;;;27.63;16.13;;;13.00;99.90;;;;;;4988046;28;20214;-90
2021/10/02 08:10:09;;;;;;;24.07;14.87;;;13.00;99.90;;;;;;4988779;28;20200;-92
2021/10/02 08:12:36;;;;;;;20.60;11.70;;;13.10;99.90;;;;;;4987539;28;20232;-89
2021/10/02 08:15:07;;;;;;;21.73;11.57;;;13.10;99.90;;;;;;4998086;28;20213;-90
2021/10/02 08:17:35;;;;;;;14.53;9.07;;;13.10;99.90;;;;;;5015533;28;20475;-89
2021/10/02 08:20:08;;;;;;;15.03;9.00;;;13.20;99.90;;;;;;4998150;28;20220;-90
2021/10/02 08:22:38;;;;;;;15.57;8.97;;;13.30;99.90;;;;;;4995586;28;20227;-90
2021/10/02 08:25:07;;;;;;;15.10;9.17;;;13.30;99.90;;;;;;4996597;28;20283;-91
2021/10/02 08:27:34;;;;;;;13.17;8.50;;;13.30;99.90;;;;;;4996656;28;20222;-87
2021/10/02 08:30:02;;;;;;;15.47;7.87;;;13.30;99.90;;;;;;4996134;28;20226;-91
2021/10/02 08:32:30;;;;;;;15.43;7.60;;;13.30;99.90;;;;;;4995728;28;20283;-92
2021/10/02 08:34:57;;;;;;;16.27;8.10;;;13.30;99.90;;;;;;4999670;28;20211;-90
2021/10/02 08:37:25;;;;;;;17.07;8.60;;;13.30;99.90;;;;;;5001376;28;20196;-89
2021/10/02 08:39:51;;;;;;;16.27;8.07;;;13.40;99.90;;;;;;4994924;28;20208;-89
2021/10/02 08:42:20;;;;;;;12.40;7.50;;;13.40;99.90;;;;;;4994830;28;20231;-90
2021/10/02 08:44:50;;;;;;;12.73;8.27;;;13.50;99.90;;;;;;5007991;28;20610;-89
2021/10/02 08:47:19;;;;;;;13.87;7.17;;;13.60;99.90;;;;;;5009033;28;20213;-93
2021/10/02 08:49:48;;;;;;;10.83;6.90;;;13.60;99.90;;;;;;4994763;28;20741;-90
2021/10/02 08:52:18;;;;;;;23.57;8.57;;;13.70;99.90;;;;;;4994430;28;20215;-91
2021/10/02 08:54:48;;;;;;;13.03;6.77;;;13.70;99.90;;;;;;4994455;28;20208;-92
2021/10/02 08:57:20;;;;;;;15.30;6.37;;;13.80;99.90;;;;;;4995209;28;20204;-90
2021/10/02 08:59:47;;;;;;;10.63;5.87;;;13.80;99.90;;;;;;4994752;28;20196;-88
2021/10/02 09:02:15;;;;;;;9.77;5.17;;;13.80;99.90;;;;;;4995120;28;20263;-90
2021/10/02 09:04:44;;;;;;;12.90;5.10;;;13.90;99.90;;;;;;4993443;28;20222;-90
2021/10/02 09:07:15;;;;;;;7.60;5.00;;;13.90;99.90;;;;;;5004577;28;20270;-92
2021/10/02 09:09:43;;;;;;;9.30;5.47;;;14.00;99.90;;;;;;5013689;28;20215;-92
2021/10/02 09:12:11;;;;;;;11.27;5.10;;;14.10;99.90;;;;;;5013327;28;20235;-91
2021/10/02 09:14:38;;;;;;;12.50;5.10;;;14.10;99.90;;;;;;5012492;28;20217;-85
2021/10/02 09:17:05;;;;;;;6.80;4.47;;;14.10;99.90;;;;;;5012546;28;20207;-88
2021/10/02 09:19:36;;;;;;;12.87;5.03;;;14.20;99.90;;;;;;5014726;28;20203;-91
2021/10/02 09:22:06;;;;;;;8.93;4.40;;;14.30;99.90;;;;;;5016910;28;20234;-91
2021/10/02 09:24:37;;;;;;;8.63;3.60;;;14.30;99.90;;;;;;4999646;28;20223;-90
2021/10/02 09:27:05;;;;;;;7.10;3.63;;;14.40;99.90;;;;;;5004178;28;20219;-91
2021/10/02 09:29:39;;;;;;;7.87;3.50;;;14.60;99.90;;;;;;5019008;28;20203;-89
2021/10/02 09:32:09;;;;;;;7.03;3.10;;;14.70;99.90;;;;;;5016345;28;20199;-92
2021/10/02 09:34:45;;;;;;;7.13;3.37;;;14.90;99.90;;;;;;5017108;28;20210;-87
2021/10/02 09:37:22;;;;;;;9.37;3.40;;;15.00;99.90;;;;;;5048726;23;20279;-85
2021/10/02 09:39:52;;;;;;;6.50;2.93;;;15.20;99.90;;;;;;5075753;28;20206;-88
2021/10/02 09:42:23;;;;;;;9.47;3.43;;;15.30;99.90;;;;;;5074054;28;20220;-93
2021/10/02 09:44:50;;;;;;;9.87;3.37;;;15.50;99.90;;;;;;5062508;28;20226;-90
2021/10/02 09:47:18;;;;;;;6.87;2.97;;;15.50;99.90;;;;;;5052626;28;20204;-90
2021/10/02 09:49:48;;;;;;;7.90;3.00;;;15.50;99.90;;;;;;5044405;28;20222;-91
2021/10/02 09:52:43;;;;;;;7.43;2.33;;;15.60;99.90;;;;;;5039435;28;20297;-88
2021/10/02 09:55:22;;;;;;;6.37;3.03;;;15.60;99.90;;;;;;5010143;28;20206;-90
2021/10/02 09:57:51;;;;;;;6.87;2.90;;;15.80;99.90;;;;;;5034749;28;20670;-92
2021/10/02 10:00:21;;;;;;;5.23;2.10;;;16.00;99.90;;;;;;5033461;28;20276;-91
2021/10/02 10:02:48;;;;;;;6.25;2.63;;;16.10;99.90;;;;;;5034138;28;20222;-90
2021/10/02 10:05:15;;;;;;;6.18;2.53;;;16.10;99.90;;;;;;5033701;28;20210;-92
2021/10/02 10:07:53;;;;;;;3.88;1.75;;;16.20;99.90;;;;;;5043481;28;20183;-89
2021/10/02 10:10:22;;;;;;;5.85;2.22;;;16.10;99.90;;;;;;5034065;28;20229;-90
2021/10/02 10:12:49;;;;;;;9.05;2.08;;;16.20;99.90;;;;;;5032610;28;20201;-88
2021/10/02 10:15:35;;;;;;;4.20;2.17;;;16.20;99.90;;;;;;5046229;28;20202;-84
2021/10/02 10:18:02;;;;;;;8.23;2.10;;;16.10;99.90;;;;;;5051559;28;20609;-90
2021/10/02 10:20:39;;;;;;;4.43;2.30;;;16.10;99.90;;;;;;5032228;28;20210;-86
2021/10/02 10:23:07;;;;;;;7.07;1.83;;;16.00;99.90;;;;;;5031437;28;20233;-86
2021/10/02 10:25:48;;;;;;;6.73;1.97;;;15.90;99.90;;;;;;5047660;28;20730;-88
2021/10/02 10:28:18;;;;;;;4.35;1.77;;;15.90;99.90;;;;;;5043001;28;20591;-86
2021/10/02 10:30:47;;;;;;;6.68;1.73;;;15.90;99.90;;;;;;5031352;28;20206;-87
2021/10/02 10:33:15;;;;;;;6.70;2.08;;;15.90;99.90;;;;;;5030547;28;20588;-87
2021/10/02 10:35:45;;;;;;;5.13;1.90;;;15.90;99.90;;;;;;5030874;28;20309;-87
2021/10/02 10:38:14;;;;;;;8.57;3.50;;;15.80;99.90;;;;;;5047671;28;20244;-86
2021/10/02 10:40:43;;;;;;;5.53;2.50;;;15.80;99.90;;;;;;5050475;28;20209;-88
2021/10/02 10:43:10;;;;;;;8.80;2.33;;;15.60;99.90;;;;;;5041593;28;20230;-89
2021/10/02 10:45:41;;;;;;;7.83;2.60;;;15.50;99.90;;;;;;5030902;28;20199;-87
2021/10/02 10:48:09;;;;;;;6.53;2.20;;;15.50;99.90;;;;;;5030800;28;20187;-86
2021/10/02 10:50:38;;;;;;;12.17;3.17;;;15.40;99.90;;;;;;5030071;28;20245;-86
2021/10/02 10:53:07;;;;;;;6.13;2.47;;;15.20;99.90;;;;;;5030105;28;20278;-84
2021/10/02 10:55:47;;;;;;;5.67;3.10;;;15.20;99.90;;;;;;5030139;28;20253;-88
2021/10/02 10:58:23;;;;;;;8.97;3.53;;;15.20;99.90;;;;;;5029161;28;20203;-88
2021/10/02 11:00:50;;;;;;;7.30;3.30;;;15.10;99.90;;;;;;5047592;28;20233;-87
2021/10/02 11:03:35;;;;;;;8.43;4.33;;;15.10;99.90;;;;;;5046662;28;20245;-89
2021/10/02 11:06:02;;;;;;;7.50;4.43;;;15.00;99.90;;;;;;5035732;28;20218;-91
2021/10/02 11:09:06;;;;;;;7.70;5.07;;;15.00;99.90;;;;;;5028569;28;20772;-88
2021/10/02 11:12:00;;;;;;;8.20;5.40;;;15.00;99.90;;;;;;5029315;28;20202;-91
2021/10/02 11:15:00;;;;;;;8.67;5.67;;;14.90;99.90;;;;;;5045532;28;20206;-89
2021/10/02 11:17:46;;;;;;;9.37;6.33;;;14.80;99.90;;;;;;5050416;28;20221;-93
2021/10/02 11:20:33;;;;;;;11.03;7.30;;;14.80;99.90;;;;;;5026841;28;20218;-94
2021/10/02 11:23:43;;;;;;;12.37;7.40;;;14.80;99.90;;;;;;5027971;28;20219;-90
2021/10/02 11:26:22;;;;;;;14.83;9.33;;;14.90;99.90;;;;;;5031860;28;20202;-92
2021/10/02 11:28:51;;;;;;;15.07;9.07;;;14.80;99.90;;;;;;5032043;28;20194;-92
2021/10/02 11:31:22;;;;;;;14.33;9.30;;;14.80;99.90;;;;;;5032805;28;20203;-92
2021/10/02 11:33:50;;;;;;;12.90;9.70;;;14.80;99.90;;;;;;5051926;28;20283;-91
2021/10/02 11:36:43;;;;;;;17.70;10.63;;;14.80;99.90;;;;;;5050422;28;20245;-92
2021/10/02 11:39:13;;;;;;;16.00;10.00;;;14.80;99.90;;;;;;5059056;28;20691;-93
2021/10/02 11:41:44;;;;;;;14.33;11.07;;;14.80;99.90;;;;;;5031690;28;20206;-87
2021/10/02 11:44:12;;;;;;;15.73;11.13;;;14.80;99.90;;;;;;5031567;28;20223;-91
2021/10/02 11:46:41;;;;;;;13.73;10.10;;;14.80;99.90;;;;;;5041631;22;20266;-92
2021/10/02 11:49:16;;;;;;;15.80;11.33;;;14.90;99.90;;;;;;5031893;28;20206;-89
2021/10/02 11:51:44;;;;;;;18.50;11.37;;;14.90;99.90;;;;;;5032966;28;20205;-93
2021/10/02 11:54:19;;;;;;;15.20;10.97;;;14.90;99.90;;;;;;5037094;28;20203;-86
2021/10/02 11:57:06;;;;;;;21.03;11.10;;;15.00;99.90;;;;;;5036660;28;20198;-93
2021/10/02 11:59:33;;;;;;;14.73;10.07;;;15.00;99.90;;;;;;5015917;28;20197;-89
2021/10/02 12:02:03;;;;;;;13.93;9.03;;;15.00;99.90;;;;;;5026386;28;20910;-89
2021/10/02 12:04:30;;;;;;;14.90;9.80;;;15.00;99.90;;;;;;5034405;28;20211;-87
2021/10/02 12:06:57;;;;;;;16.00;9.17;;;15.10;99.90;;;;;;5033796;28;20206;-90
2021/10/02 12:09:29;;;;;;;17.27;10.17;;;15.10;99.90;;;;;;5028979;28;20650;-85
2021/10/02 12:11:56;;;;;;;16.00;9.20;;;15.30;99.90;;;;;;5014128;28;20210;-86
2021/10/02 12:14:24;;;;;;;15.10;9.97;;;15.40;99.90;;;;;;5013708;28;20199;-91
2021/10/02 12:16:53;;;;;;;17.93;9.07;;;15.50;99.90;;;;;;5014567;28;20211;-90
2021/10/02 12:19:24;;;;;;;15.67;9.73;;;15.50;99.90;;;;;;5018484;28;20256;-84
2021/10/02 12:21:55;;;;;;;14.83;10.50;;;15.60;99.90;;;;;;5020350;28;20286;-90
2021/10/02 12:24:23;;;;;;;18.03;9.97;;;15.60;99.90;;;;;;5024558;28;20257;-92
2021/10/02 12:26:56;;;;;;;17.07;9.80;;;15.60;99.90;;;;;;5016887;28;20211;-93
2021/10/02 12:29:26;;;;;;;14.17;9.70;;;15.60;99.90;;;;;;5031071;28;20717;-89
2021/10/02 12:31:59;;;;;;;12.73;8.93;;;15.70;99.90;;;;;;5029825;28;20203;-89
2021/10/02 12:34:30;;;;;;;13.85;9.90;;;15.80;99.90;;;;;;5009959;28;20195;-82
2021/10/02 12:36:59;;;;;;;14.05;9.40;;;15.80;99.90;;;;;;5011296;28;20218;-85
2021/10/02 12:39:29;;;;;;;14.47;9.83;;;15.80;99.90;;;;;;5029178;28;20199;-85
2021/10/02 12:41:56;;;;;;;11.50;8.03;;;15.80;99.90;;;;;;5030256;28;20206;-84
2021/10/02 12:44:27;;;;;;;10.90;8.95;;;15.90;99.90;;;;;;5030296;28;20246;-84
2021/10/02 12:46:56;;;;;;;14.30;8.98;;;15.90;99.90;;;;;;5038386;28;20253;-83
2021/10/02 12:49:24;;;;;;;15.00;8.30;;;15.80;99.90;;;;;;5031282;28;20222;-89
2021/10/02 12:51:54;;;;;;;15.43;9.23;;;15.90;99.90;;;;;;5032942;28;20211;-91
2021/10/02 12:54:25;;;;;;;13.93;8.73;;;15.90;99.90;;;;;;5042132;28;20209;-89
2021/10/02 12:56:59;;;;;;;10.83;9.00;;;15.80;99.90;;;;;;5053317;28;20220;-88
2021/10/02 12:59:36;;;;;;;12.77;8.70;;;15.70;99.90;;;;;;5053277;28;20605;-86
2021/10/02 13:02:03;;;;;;;13.50;8.27;;;15.70;99.90;;;;;;5046311;28;20199;-83
2021/10/02 13:04:33;;;;;;;16.73;9.07;;;15.60;99.90;;;;;;5030462;28;20226;-90
2021/10/02 13:07:02;;;;;;;10.20;8.33;;;15.50;99.90;;;;;;5032193;28;20198;-85
2021/10/02 13:09:29;;;;;;;14.80;9.33;;;15.40;99.90;;;;;;5034625;28;20206;-87
2021/10/02 13:12:06;;;;;;;12.70;7.80;;;15.40;99.90;;;;;;5045709;28;20244;-92
2021/10/02 13:14:35;;;;;;;14.50;8.93;;;15.40;99.90;;;;;;5055003;28;20747;-92
2021/10/02 13:17:05;;;;;;;14.07;7.93;;;15.30;99.90;;;;;;5053865;28;20190;-87
2021/10/02 13:19:33;;;;;;;14.17;8.40;;;15.30;99.90;;;;;;5053268;28;20594;-90
2021/10/02 13:22:13;;;;;;;12.70;7.87;;;15.30;99.90;;;;;;5054001;28;20217;-91
2021/10/02 13:25:00;;;;;;;11.67;7.53;;;15.20;99.90;;;;;;5039241;28;20247;-89
2021/10/02 13:27:30;;;;;;;13.47;7.40;;;15.20;99.90;;;;;;5032930;28;20198;-87
2021/10/02 13:30:04;;;;;;;13.40;7.23;;;15.10;99.90;;;;;;5043307;28;20198;-89
2021/10/02 13:32:30;;;;;;;12.10;7.53;;;15.10;99.90;;;;;;5052688;28;20559;-88
2021/10/02 13:34:57;;;;;;;10.50;6.87;;;15.10;99.90;;;;;;5034496;28;20206;-87
2021/10/02 13:37:26;;;;;;;10.90;6.77;;;15.10;99.90;;;;;;5038165;28;20239;-91
2021/10/02 13:39:54;;;;;;;9.37;5.83;;;15.10;99.90;;;;;;5040219;28;20218;-89